Time;durP1;ratioP1;P1;durP2;ratioP2;P2;SDS_P1;SDS_P2;PMS_P1;PMS_P2;Temp;Humidity;BMP_temperature;BMP_pressure;BME280_temperature;BME280_humidity;BME280_pressure;Samples;Min_cycle;Max_cycle;Signal;HPM_P1;HPM_P2
2022/03/20 00:00:33;;;;;;;40.97;18.17;;;4.30;99.90;;;;;;5054538;28;20028;-59
2022/03/20 00:03:02;;;;;;;36.92;17.90;;;4.30;99.90;;;;;;5054349;28;20144;-60
2022/03/20 00:05:28;;;;;;;35.63;18.05;;;4.30;99.90;;;;;;5054420;28;20025;-61
2022/03/20 00:07:54;;;;;;;33.10;17.02;;;4.30;99.90;;;;;;5052180;28;20060;-60
2022/03/20 00:10:20;;;;;;;35.17;18.08;;;4.30;99.90;;;;;;5053193;28;20195;-59
2022/03/20 00:12:45;;;;;;;36.55;18.63;;;4.30;99.90;;;;;;5052277;28;20031;-60
2022/03/20 00:15:11;;;;;;;35.63;16.42;;;4.20;99.90;;;;;;5052662;28;20063;-60
2022/03/20 00:17:37;;;;;;;35.60;16.65;;;4.20;99.90;;;;;;5053455;28;20029;-60
2022/03/20 00:20:04;;;;;;;32.33;15.07;;;4.20;99.90;;;;;;5053573;28;20032;-59
2022/03/20 00:22:49;;;;;;;29.52;15.15;;;4.20;99.90;;;;;;5053296;28;20061;-60
2022/03/20 00:25:16;;;;;;;30.48;15.13;;;4.10;99.90;;;;;;5052221;28;20032;-61
2022/03/20 00:27:42;;;;;;;30.08;15.63;;;4.10;99.90;;;;;;5051939;28;20029;-60
2022/03/20 00:30:08;;;;;;;31.40;14.45;;;4.10;99.90;;;;;;5053183;28;20029;-59
2022/03/20 00:32:34;;;;;;;32.05;15.55;;;4.10;99.90;;;;;;5053216;28;20103;-60
2022/03/20 00:35:00;;;;;;;29.85;14.98;;;4.10;99.90;;;;;;5051879;28;20120;-60
2022/03/20 00:37:27;;;;;;;26.83;14.15;;;4.10;99.90;;;;;;5051876;28;20032;-60
2022/03/20 00:39:53;;;;;;;28.13;14.15;;;4.10;99.90;;;;;;5051514;28;20112;-59
2022/03/20 00:42:19;;;;;;;31.40;14.65;;;4.10;99.90;;;;;;5053081;28;20435;-60
2022/03/20 00:44:45;;;;;;;24.88;13.98;;;4.00;99.90;;;;;;5051772;28;20029;-60
2022/03/20 00:47:11;;;;;;;27.95;14.05;;;3.90;99.90;;;;;;5052918;28;20032;-60
2022/03/20 00:49:37;;;;;;;26.05;13.95;;;3.90;99.90;;;;;;5052917;28;20037;-60
2022/03/20 00:54:47;;;;;;;31.98;13.27;;;3.80;99.90;;;;;;5052725;28;20059;-60
2022/03/20 00:57:13;;;;;;;26.88;13.82;;;3.80;99.90;;;;;;5051699;28;20024;-60
2022/03/20 00:59:39;;;;;;;29.08;14.32;;;3.70;99.90;;;;;;5052866;28;20033;-60
2022/03/20 01:02:05;;;;;;;29.55;14.00;;;3.70;99.90;;;;;;5052837;28;20053;-60
2022/03/20 01:04:31;;;;;;;25.35;13.70;;;3.60;99.90;;;;;;5051530;28;20380;-60
2022/03/20 01:09:35;;;;;;;30.83;14.30;;;3.60;99.90;;;;;;5127350;27;20965;-59
2022/03/20 01:12:02;;;;;;;28.02;13.90;;;3.60;99.90;;;;;;5111715;28;20035;-60
2022/03/20 01:14:29;;;;;;;27.38;14.57;;;3.60;99.90;;;;;;5110139;28;20031;-60
2022/03/20 01:16:55;;;;;;;25.48;13.10;;;3.50;99.90;;;;;;5111831;28;20031;-60
2022/03/20 01:19:22;;;;;;;30.65;14.07;;;3.40;99.90;;;;;;5111666;28;20375;-65
2022/03/20 01:21:48;;;;;;;30.88;14.32;;;3.30;99.90;;;;;;5111635;28;20032;-65
2022/03/20 01:24:13;;;;;;;29.65;14.30;;;3.30;99.90;;;;;;5111675;28;20449;-61
2022/03/20 01:26:39;;;;;;;27.13;13.98;;;3.20;99.90;;;;;;5111865;28;20028;-60
2022/03/20 01:29:05;;;;;;;27.70;12.65;;;3.20;99.90;;;;;;5111452;28;20057;-60
2022/03/20 01:31:35;;;;;;;26.67;13.05;;;3.10;99.90;;;;;;5110400;28;20483;-60
2022/03/20 01:34:02;;;;;;;20.77;11.25;;;3.00;99.90;;;;;;5111276;28;20129;-60
2022/03/20 01:36:28;;;;;;;23.85;11.45;;;3.00;99.90;;;;;;5111251;28;20115;-60
2022/03/20 01:38:54;;;;;;;24.42;11.73;;;3.10;99.90;;;;;;5109919;28;20515;-61
2022/03/20 01:41:21;;;;;;;23.38;11.45;;;3.10;99.70;;;;;;5110933;28;20023;-60
2022/03/20 01:43:51;;;;;;;21.42;11.52;;;3.10;99.30;;;;;;5111119;28;20024;-60
2022/03/20 01:46:17;;;;;;;19.05;10.70;;;3.10;98.00;;;;;;5111058;28;20016;-60
2022/03/20 01:48:43;;;;;;;17.02;9.40;;;3.10;97.40;;;;;;5109674;28;20037;-60
2022/03/20 01:51:13;;;;;;;16.73;9.50;;;3.10;97.40;;;;;;5110196;28;20106;-60
2022/03/20 01:53:39;;;;;;;20.95;10.25;;;3.10;96.50;;;;;;5110920;28;20027;-61
2022/03/20 01:56:05;;;;;;;18.20;9.95;;;3.20;93.80;;;;;;5110949;28;20043;-60
2022/03/20 01:58:32;;;;;;;19.02;9.77;;;3.20;94.40;;;;;;5111198;28;20027;-60
2022/03/20 02:00:58;;;;;;;19.08;9.02;;;3.20;94.70;;;;;;5110772;28;20027;-60
2022/03/20 02:03:24;;;;;;;17.15;9.73;;;3.20;93.40;;;;;;5109501;28;20024;-60
2022/03/20 02:05:50;;;;;;;20.83;9.07;;;3.20;93.00;;;;;;5111012;28;20024;-61
2022/03/20 02:08:16;;;;;;;14.10;7.82;;;3.20;92.10;;;;;;5110635;28;20056;-60
2022/03/20 02:10:43;;;;;;;17.77;9.32;;;3.20;91.40;;;;;;5109361;28;20020;-60
2022/03/20 02:13:09;;;;;;;14.10;8.10;;;3.20;91.90;;;;;;5109352;28;20081;-61
2022/03/20 02:15:38;;;;;;;17.42;9.60;;;3.20;89.00;;;;;;5110730;28;20028;-60
2022/03/20 02:18:06;;;;;;;;;;;3.30;88.30;;;;;;5110951;28;20080;-61
2022/03/20 02:20:32;;;;;;;15.05;8.02;;;3.30;87.90;;;;;;5098689;28;20004;-60
2022/03/20 02:22:58;;;;;;;17.58;8.05;;;3.40;86.20;;;;;;5097119;28;20043;-60
2022/03/20 02:25:24;;;;;;;17.98;9.02;;;3.30;83.60;;;;;;5096779;28;20032;-60
2022/03/20 02:27:49;;;;;;;19.35;8.18;;;3.30;85.00;;;;;;5096616;28;20475;-60
2022/03/20 02:30:18;;;;;;;18.27;8.68;;;3.40;84.60;;;;;;5096640;28;20035;-60
2022/03/20 02:32:49;;;;;;;15.68;8.23;;;3.20;87.00;;;;;;5096712;28;20024;-60
2022/03/20 02:35:17;;;;;;;15.23;8.15;;;3.20;87.00;;;;;;5096558;28;20028;-60
2022/03/20 02:37:52;;;;;;;17.88;8.85;;;3.10;86.90;;;;;;5096522;28;20094;-60
2022/03/20 02:40:20;;;;;;;16.23;9.60;;;3.10;90.10;;;;;;5096660;28;20020;-59
2022/03/20 02:42:48;;;;;;;17.70;8.57;;;3.00;92.30;;;;;;5095123;28;20032;-60
2022/03/20 02:45:16;;;;;;;17.13;9.05;;;2.90;93.80;;;;;;5096360;28;20024;-60
2022/03/20 02:47:44;;;;;;;21.08;9.65;;;2.80;95.50;;;;;;5095001;28;20036;-60
2022/03/20 02:50:22;;;;;;;21.00;9.93;;;2.70;96.30;;;;;;5096773;28;20032;-62
2022/03/20 02:52:49;;;;;;;18.17;9.73;;;2.60;97.00;;;;;;5095518;28;20028;-60
2022/03/20 02:55:20;;;;;;;20.80;8.85;;;2.50;97.50;;;;;;5095240;28;20020;-60
2022/03/20 02:57:47;;;;;;;18.98;9.50;;;2.30;98.00;;;;;;5094924;28;20369;-61
2022/03/20 03:00:14;;;;;;;21.52;10.52;;;2.30;98.70;;;;;;5094863;28;20072;-60
2022/03/20 03:02:43;;;;;;;21.95;9.60;;;2.20;99.90;;;;;;5094783;28;20080;-60
2022/03/20 03:05:15;;;;;;;18.70;9.02;;;2.10;99.90;;;;;;5094687;28;20024;-60
2022/03/20 03:13:14;;;;;;;20.55;9.30;;;1.70;99.90;;;;;;5095953;28;20100;-60
2022/03/20 03:15:40;;;;;;;19.67;9.73;;;1.60;99.90;;;;;;5095545;28;20016;-60
2022/03/20 03:18:06;;;;;;;27.33;9.52;;;1.50;99.90;;;;;;5095791;28;20475;-60
2022/03/20 03:20:32;;;;;;;23.65;10.70;;;1.40;99.90;;;;;;5095706;28;20032;-60
2022/03/20 03:22:58;;;;;;;19.45;9.43;;;1.40;99.90;;;;;;5094367;28;20028;-60
2022/03/20 03:25:24;;;;;;;21.33;9.60;;;1.40;99.90;;;;;;5094528;28;20357;-60
2022/03/20 03:27:50;;;;;;;18.63;9.45;;;1.50;99.90;;;;;;5094242;28;20094;-60
2022/03/20 03:30:16;;;;;;;22.23;9.43;;;1.20;99.90;;;;;;5094409;28;20100;-60
2022/03/20 03:32:42;;;;;;;18.00;8.90;;;1.20;99.90;;;;;;5094555;28;20436;-60
2022/03/20 03:37:54;;;;;;;19.30;9.48;;;1.10;99.90;;;;;;5095265;28;20387;-59
2022/03/20 03:40:19;;;;;;;17.30;8.70;;;1.10;99.90;;;;;;5095281;28;20020;-60
2022/03/20 03:42:46;;;;;;;19.20;9.30;;;1.00;99.90;;;;;;5094045;28;20391;-60
2022/03/20 03:45:12;;;;;;;16.73;8.65;;;1.00;99.90;;;;;;5095211;28;20039;-60
2022/03/20 03:47:38;;;;;;;20.88;10.35;;;0.90;99.90;;;;;;5095150;28;20039;-60
2022/03/20 03:50:05;;;;;;;15.25;8.13;;;0.90;99.90;;;;;;5093890;28;20024;-60
2022/03/20 03:52:30;;;;;;;18.58;8.77;;;1.00;99.90;;;;;;5093756;28;20020;-60
2022/03/20 03:54:56;;;;;;;16.08;8.55;;;1.00;99.90;;;;;;5095156;28;20031;-60
2022/03/20 03:57:22;;;;;;;15.60;8.38;;;1.00;99.90;;;;;;5094926;28;20020;-61
2022/03/20 03:59:48;;;;;;;16.45;8.20;;;1.10;99.60;;;;;;5094922;28;20031;-60
2022/03/20 04:02:14;;;;;;;18.08;8.98;;;1.10;99.00;;;;;;5094936;28;20457;-60
2022/03/20 04:04:41;;;;;;;19.67;8.13;;;1.10;98.50;;;;;;5094507;28;20375;-60
2022/03/20 04:07:07;;;;;;;19.13;8.07;;;1.10;98.90;;;;;;5094800;28;20024;-60
2022/03/20 04:09:33;;;;;;;16.92;8.02;;;1.10;98.30;;;;;;5094863;28;20525;-60
2022/03/20 04:11:59;;;;;;;15.35;7.70;;;1.10;97.20;;;;;;5094707;28;20048;-60
2022/03/20 04:14:25;;;;;;;19.70;7.82;;;1.10;97.30;;;;;;5094784;28;20081;-60
2022/03/20 04:16:54;;;;;;;14.45;7.68;;;1.10;98.40;;;;;;5094343;28;20024;-60
2022/03/20 04:19:19;;;;;;;;;;;1.00;97.80;;;;;;5095048;28;20367;-60
2022/03/20 04:21:45;;;;;;;15.32;7.60;;;1.00;99.40;;;;;;5094954;28;19911;-60
2022/03/20 04:24:11;;;;;;;15.10;7.80;;;0.90;99.90;;;;;;5094638;28;20487;-60
2022/03/20 04:26:37;;;;;;;15.90;7.75;;;0.80;99.90;;;;;;5094465;28;20413;-60
2022/03/20 04:29:02;;;;;;;21.80;9.32;;;0.70;99.90;;;;;;5094344;28;20039;-60
2022/03/20 04:31:29;;;;;;;18.85;8.38;;;0.60;99.90;;;;;;5093048;28;20032;-60
2022/03/20 04:33:56;;;;;;;18.85;8.23;;;1.90;99.90;;;;;;5094780;28;20150;-60
2022/03/20 04:36:24;;;;;;;18.08;7.88;;;0.60;99.90;;;;;;5094568;28;20031;-60
2022/03/20 04:38:54;;;;;;;17.42;8.57;;;0.60;99.90;;;;;;5094263;28;20112;-60
2022/03/20 04:41:21;;;;;;;20.50;9.20;;;0.60;99.90;;;;;;5094808;28;20028;-60
2022/03/20 04:43:48;;;;;;;21.75;8.65;;;0.60;99.90;;;;;;5094137;28;20031;-60
2022/03/20 04:46:14;;;;;;;18.42;8.32;;;0.60;99.90;;;;;;5094210;28;20035;-60
2022/03/20 04:59:37;;;;;;;14.38;7.18;;;0.40;99.90;;;;;;5093851;28;20035;-60
2022/03/20 05:02:04;;;;;;;15.40;7.85;;;0.40;99.90;;;;;;5093985;28;20024;-60
2022/03/20 05:04:29;;;;;;;15.23;7.70;;;0.40;99.90;;;;;;5094021;28;20035;-60
2022/03/20 05:06:55;;;;;;;15.45;7.88;;;0.40;99.90;;;;;;5093988;28;20021;-60
2022/03/20 05:14:50;;;;;;;17.60;7.55;;;0.40;99.90;;;;;;5093782;28;20077;-60
2022/03/20 05:17:16;;;;;;;17.40;8.35;;;0.40;99.90;;;;;;5092843;28;20028;-60
2022/03/20 05:19:41;;;;;;;20.52;8.23;;;0.50;99.90;;;;;;5093543;28;20085;-60
2022/03/20 05:22:11;;;;;;;16.38;7.80;;;0.40;99.70;;;;;;5092585;28;20391;-60
2022/03/20 05:24:39;;;;;;;17.65;8.25;;;0.50;99.50;;;;;;5093756;28;20020;-59
2022/03/20 05:27:06;;;;;;;14.70;7.90;;;0.50;99.60;;;;;;5093824;28;20024;-60
2022/03/20 05:29:32;;;;;;;18.95;8.55;;;0.60;99.60;;;;;;5093684;28;20036;-60
2022/03/20 05:32:00;;;;;;;15.52;7.63;;;0.60;99.30;;;;;;5093816;28;20031;-60
2022/03/20 05:34:28;;;;;;;15.40;7.63;;;0.60;99.20;;;;;;5093885;28;20085;-66
2022/03/20 05:36:56;;;;;;;14.68;8.00;;;0.60;99.50;;;;;;5093903;28;20114;-63
2022/03/20 05:39:22;;;;;;;13.23;8.23;;;0.70;99.10;;;;;;5093922;28;20031;-59
2022/03/20 05:41:48;;;;;;;15.88;7.40;;;0.70;99.10;;;;;;5092819;28;20263;-60
2022/03/20 05:44:17;;;;;;;20.25;7.90;;;0.70;99.10;;;;;;5093579;28;20095;-64
2022/03/20 05:46:48;;;;;;;18.33;8.73;;;0.70;99.20;;;;;;5092343;28;20479;-60
2022/03/20 05:49:20;;;;;;;19.42;8.63;;;0.70;98.90;;;;;;5091945;28;20072;-60
2022/03/20 05:51:46;;;;;;;13.23;7.65;;;0.80;98.90;;;;;;5093475;28;20024;-60
2022/03/20 05:54:13;;;;;;;16.55;8.60;;;0.80;99.00;;;;;;5092078;28;20042;-60
2022/03/20 05:59:23;;;;;;;12.48;7.30;;;0.80;99.00;;;;;;5097537;28;20101;-60
2022/03/20 06:01:51;;;;;;;14.38;7.72;;;0.90;98.80;;;;;;5097251;28;20460;-60
2022/03/20 06:04:18;;;;;;;18.85;8.23;;;1.00;98.40;;;;;;5095592;28;20024;-60
2022/03/20 06:06:44;;;;;;;16.70;7.55;;;1.10;97.70;;;;;;5095841;28;20028;-60
2022/03/20 06:09:10;;;;;;;16.60;7.07;;;1.30;96.20;;;;;;5097045;28;20036;-60
2022/03/20 06:11:36;;;;;;;13.98;7.35;;;1.60;95.80;;;;;;5097080;28;20077;-60
2022/03/20 06:14:03;;;;;;;18.88;8.13;;;1.90;94.40;;;;;;5096702;28;20020;-60
2022/03/20 06:16:30;;;;;;;19.20;8.35;;;2.20;91.90;;;;;;5097168;28;20024;-60
2022/03/20 06:18:56;;;;;;;17.48;8.10;;;2.50;90.30;;;;;;5095584;28;20027;-60
2022/03/20 06:21:22;;;;;;;14.52;7.97;;;2.60;87.30;;;;;;5096766;28;20024;-60
2022/03/20 06:23:49;;;;;;;15.15;7.82;;;2.80;84.30;;;;;;5097214;28;20064;-60
2022/03/20 06:26:16;;;;;;;17.25;8.00;;;3.10;81.50;;;;;;5096952;28;20073;-60
2022/03/20 06:28:43;;;;;;;15.10;8.15;;;3.30;78.00;;;;;;5096609;28;20106;-60
2022/03/20 06:31:10;;;;;;;16.77;7.80;;;3.50;74.60;;;;;;5095383;28;20039;-60
2022/03/20 06:33:39;;;;;;;18.50;7.63;;;3.80;71.00;;;;;;5096947;28;20055;-60
2022/03/20 06:36:06;;;;;;;16.27;8.45;;;4.10;68.10;;;;;;5095005;28;20034;-60
2022/03/20 06:38:34;;;;;;;14.45;7.60;;;4.30;65.00;;;;;;5096752;28;20392;-60
2022/03/20 06:41:00;;;;;;;14.87;8.43;;;4.60;63.30;;;;;;5096314;28;20024;-61
2022/03/20 06:43:27;;;;;;;14.43;8.70;;;4.80;60.30;;;;;;5096506;28;20371;-61
2022/03/20 06:45:54;;;;;;;12.52;7.60;;;5.00;58.10;;;;;;5096400;28;20020;-61
2022/03/20 06:48:20;;;;;;;13.50;7.45;;;5.20;55.90;;;;;;5094958;28;20039;-61
2022/03/20 06:50:46;;;;;;;13.68;7.43;;;5.30;55.50;;;;;;5096485;28;20016;-62
2022/03/20 06:53:11;;;;;;;12.23;8.43;;;5.50;54.40;;;;;;5096257;28;20028;-61
2022/03/20 06:55:38;;;;;;;12.75;7.70;;;5.50;53.10;;;;;;5094943;28;20369;-61
2022/03/20 06:58:05;;;;;;;16.85;8.23;;;5.40;53.00;;;;;;5096782;28;20046;-61
2022/03/20 07:00:31;;;;;;;15.63;8.07;;;5.30;52.40;;;;;;5096162;28;20024;-61
2022/03/20 07:02:58;;;;;;;17.17;8.05;;;5.20;52.30;;;;;;5096208;28;20052;-61
2022/03/20 07:05:25;;;;;;;13.57;7.82;;;5.20;53.00;;;;;;5094864;28;20055;-61
2022/03/20 07:07:51;;;;;;;13.70;8.02;;;5.50;52.70;;;;;;5095794;28;20106;-60
2022/03/20 07:10:25;;;;;;;15.57;8.05;;;5.60;51.70;;;;;;5095997;28;20028;-61
2022/03/20 07:13:48;;;;;;;14.10;8.13;;;5.60;50.30;;;;;;5095623;28;20376;-61
2022/03/20 07:15:41;;;;;;;14.57;7.20;;;5.60;51.10;;;;;;5095420;28;20110;-61
2022/03/20 07:18:09;;;;;;;12.60;6.78;;;6.00;50.60;;;;;;5095683;28;20032;-61
2022/03/20 07:20:36;;;;;;;15.60;7.95;;;6.40;48.70;;;;;;5094501;28;20107;-62
2022/03/20 07:23:02;;;;;;;13.23;7.90;;;6.30;48.10;;;;;;5095969;28;20043;-61
2022/03/20 07:30:56;;;;;;;11.68;6.35;;;6.10;46.70;;;;;;5095310;28;20115;-61
2022/03/20 07:33:41;;;;;;;11.77;7.70;;;6.50;47.40;;;;;;5096642;28;20027;-62
2022/03/20 07:36:07;;;;;;;14.50;7.60;;;6.90;45.90;;;;;;5093945;28;20111;-62
2022/03/20 07:38:37;;;;;;;15.18;7.95;;;7.30;45.50;;;;;;5094187;28;20024;-62
2022/03/20 07:41:03;;;;;;;14.80;7.35;;;7.30;44.30;;;;;;5094123;28;20031;-62
2022/03/20 07:43:29;;;;;;;12.38;7.28;;;6.90;44.40;;;;;;5095002;28;20024;-62
2022/03/20 07:45:56;;;;;;;12.68;6.97;;;6.70;44.70;;;;;;5095254;28;20067;-62
2022/03/20 07:48:23;;;;;;;12.75;6.80;;;6.90;45.00;;;;;;5094055;28;20032;-61
2022/03/20 07:50:53;;;;;;;12.05;7.95;;;7.20;44.30;;;;;;5094027;28;20063;-64
2022/03/20 07:53:19;;;;;;;12.70;7.70;;;7.40;43.80;;;;;;5095248;28;20028;-63
2022/03/20 07:55:46;;;;;;;16.23;8.00;;;7.90;43.20;;;;;;5095253;28;20032;-61
2022/03/20 07:58:12;;;;;;;12.45;7.85;;;8.20;43.00;;;;;;5095071;28;20464;-61
2022/03/20 08:00:41;;;;;;;12.82;7.88;;;8.30;41.70;;;;;;5095520;28;20039;-61
2022/03/20 08:03:07;;;;;;;13.18;7.47;;;8.30;41.50;;;;;;5094583;28;20379;-62
2022/03/20 08:05:33;;;;;;;13.88;7.47;;;8.80;41.80;;;;;;5094886;28;20027;-61
2022/03/20 08:08:02;;;;;;;13.43;7.70;;;8.70;41.00;;;;;;5093138;28;20048;-61
2022/03/20 08:10:28;;;;;;;;;;;8.80;39.70;;;;;;5095389;28;20533;-63
2022/03/20 08:12:54;;;;;;;10.75;7.28;;;8.60;40.60;;;;;;5093511;28;19931;-64
2022/03/20 08:15:19;;;;;;;11.20;7.63;;;8.30;41.80;;;;;;5093733;28;20115;-64
2022/03/20 08:17:46;;;;;;;13.23;7.70;;;8.00;41.70;;;;;;5094257;28;20102;-63
2022/03/20 08:20:14;;;;;;;14.93;7.80;;;8.00;42.10;;;;;;5093357;28;20031;-63
2022/03/20 08:22:40;;;;;;;13.70;7.68;;;8.40;41.80;;;;;;5093467;28;20464;-69
2022/03/20 08:25:07;;;;;;;12.70;7.68;;;8.70;42.30;;;;;;5095028;28;20020;-66
2022/03/20 08:27:47;;;;;;;13.85;6.82;;;8.60;43.10;;;;;;5094411;28;20111;-66
2022/03/20 08:30:17;;;;;;;17.80;8.75;;;8.90;41.90;;;;;;5093370;28;20475;-69
2022/03/20 08:32:49;;;;;;;19.77;8.15;;;9.20;41.20;;;;;;5095771;28;20426;-64
2022/03/20 08:35:19;;;;;;;13.02;8.07;;;9.20;40.80;;;;;;5094305;28;20024;-74
2022/03/20 08:37:45;;;;;;;;;;;9.30;40.50;;;;;;5095992;28;20563;-64
2022/03/20 08:40:15;;;;;;;12.10;7.78;;;9.00;40.50;;;;;;5096769;28;19904;-70
2022/03/20 08:42:44;;;;;;;14.95;7.65;;;9.20;40.80;;;;;;5094699;28;20042;-61
2022/03/20 08:45:11;;;;;;;15.68;8.40;;;9.60;39.70;;;;;;5094212;28;20036;-61
2022/03/20 08:47:37;;;;;;;13.15;8.05;;;9.70;39.50;;;;;;5094369;28;20119;-61
2022/03/20 08:50:03;;;;;;;16.05;7.80;;;9.60;39.00;;;;;;5092856;28;20020;-61
2022/03/20 08:52:30;;;;;;;13.20;7.65;;;9.80;39.60;;;;;;5094123;28;20042;-61
2022/03/20 08:54:56;;;;;;;12.82;8.10;;;10.20;39.30;;;;;;5092519;28;20028;-63
2022/03/20 08:57:25;;;;;;;13.02;8.27;;;10.60;38.00;;;;;;5094130;28;20072;-61
2022/03/20 08:59:50;;;;;;;15.35;7.82;;;11.00;37.60;;;;;;5094114;28;20063;-62
2022/03/20 09:02:16;;;;;;;10.20;7.50;;;11.60;37.20;;;;;;5093495;28;20040;-61
2022/03/20 09:04:42;;;;;;;14.98;8.75;;;12.00;36.60;;;;;;5093860;28;20036;-61
2022/03/20 09:07:07;;;;;;;13.85;8.23;;;11.20;35.90;;;;;;5093927;28;20132;-61
2022/03/20 09:09:33;;;;;;;14.00;8.38;;;11.00;36.90;;;;;;5093558;28;20462;-61
2022/03/20 09:12:01;;;;;;;15.90;8.50;;;11.30;36.50;;;;;;5094069;28;20387;-61
2022/03/20 09:14:26;;;;;;;12.40;8.25;;;11.40;37.10;;;;;;5093919;28;20030;-61
2022/03/20 09:19:37;;;;;;;15.63;9.25;;;12.40;35.80;;;;;;5093339;28;20080;-61
2022/03/20 09:22:06;;;;;;;14.57;8.13;;;12.50;34.90;;;;;;5093756;28;20024;-61
2022/03/20 09:24:50;;;;;;;12.35;8.82;;;11.90;35.70;;;;;;5093892;28;20016;-61
2022/03/20 09:27:16;;;;;;;14.85;8.82;;;11.10;36.20;;;;;;5093794;28;20029;-60
2022/03/20 09:29:42;;;;;;;13.32;8.25;;;10.80;36.40;;;;;;5094461;28;20353;-61
2022/03/20 09:32:08;;;;;;;12.35;8.57;;;11.20;37.00;;;;;;5097818;28;20039;-61
2022/03/20 09:34:34;;;;;;;15.95;9.00;;;11.60;36.50;;;;;;5098098;28;20456;-62
2022/03/20 09:37:00;;;;;;;12.40;8.80;;;12.00;35.60;;;;;;5096395;28;20028;-61
2022/03/20 09:39:26;;;;;;;14.05;8.48;;;11.80;35.60;;;;;;5097684;28;20379;-64
2022/03/20 09:41:55;;;;;;;11.73;9.05;;;11.60;36.20;;;;;;5096397;28;20123;-62
2022/03/20 09:44:25;;;;;;;12.75;8.88;;;11.10;36.30;;;;;;5097659;28;20021;-63
2022/03/20 09:46:51;;;;;;;13.05;8.75;;;11.20;37.10;;;;;;5096256;28;20142;-62
2022/03/20 09:49:18;;;;;;;18.05;9.32;;;11.50;36.50;;;;;;5097588;28;20473;-62
2022/03/20 09:51:44;;;;;;;14.23;8.65;;;11.90;36.00;;;;;;5097148;28;20388;-63
2022/03/20 09:54:13;;;;;;;14.10;8.70;;;12.20;35.70;;;;;;5097757;28;20032;-63
2022/03/20 09:56:40;;;;;;;14.63;8.80;;;12.30;34.90;;;;;;5097416;28;20032;-62
2022/03/20 09:59:07;;;;;;;13.23;9.00;;;12.20;35.00;;;;;;5097886;28;20032;-62
2022/03/20 10:01:34;;;;;;;13.73;8.60;;;12.00;34.90;;;;;;5097474;28;20035;-62
2022/03/20 10:04:09;;;;;;;13.93;8.75;;;11.90;35.30;;;;;;5097165;28;20460;-62
2022/03/20 10:06:36;;;;;;;14.23;9.05;;;11.20;35.50;;;;;;5097124;28;20111;-62
2022/03/20 10:09:05;;;;;;;12.85;9.20;;;11.40;36.10;;;;;;5096650;28;20404;-62
2022/03/20 10:11:31;;;;;;;14.57;8.75;;;11.10;36.00;;;;;;5097499;28;20031;-62
2022/03/20 10:14:17;;;;;;;15.07;9.10;;;10.60;36.70;;;;;;5097854;28;20053;-62
2022/03/20 10:16:50;;;;;;;14.27;8.82;;;10.70;37.30;;;;;;5097575;28;20028;-67
2022/03/20 10:19:28;;;;;;;15.95;9.68;;;10.60;40.10;;;;;;5097435;28;20039;-55
2022/03/20 10:22:10;;;;;;;12.93;9.02;;;10.10;45.50;;;;;;5097822;28;20020;-64
2022/03/20 10:24:38;;;;;;;15.43;8.55;;;10.00;41.50;;;;;;5097913;28;20431;-62
2022/03/20 10:27:04;;;;;;;16.48;9.45;;;9.60;39.00;;;;;;5097267;28;20024;-61
2022/03/20 10:29:32;;;;;;;14.50;8.57;;;9.40;39.70;;;;;;5095520;28;20078;-62
2022/03/20 10:32:08;;;;;;;13.70;8.90;;;9.10;40.00;;;;;;5097023;28;20024;-61
2022/03/20 10:34:50;;;;;;;15.15;8.70;;;9.10;40.70;;;;;;5095617;28;20024;-62
2022/03/20 10:37:21;;;;;;;11.93;8.63;;;9.10;40.80;;;;;;5096961;28;20024;-61
2022/03/20 10:39:46;;;;;;;14.45;7.93;;;9.10;40.80;;;;;;5096236;28;20039;-61
2022/03/20 10:42:14;;;;;;;12.98;8.57;;;9.50;40.30;;;;;;5094815;28;20024;-62
2022/03/20 10:44:40;;;;;;;14.30;9.05;;;10.10;39.50;;;;;;5096439;28;20392;-62
2022/03/20 10:47:16;;;;;;;13.93;9.00;;;10.40;38.50;;;;;;5096444;28;20027;-62
2022/03/20 10:50:10;;;;;;;13.10;8.90;;;10.40;37.90;;;;;;5096471;28;20070;-62
2022/03/20 10:52:36;;;;;;;14.23;9.07;;;9.70;38.80;;;;;;5096029;28;20346;-62
2022/03/20 10:55:15;;;;;;;15.98;9.23;;;9.00;40.20;;;;;;5095937;28;20028;-62
2022/03/20 10:57:42;;;;;;;13.70;8.50;;;8.70;40.90;;;;;;5096412;28;20024;-61
2022/03/20 11:00:11;;;;;;;13.48;8.20;;;9.00;40.80;;;;;;5095360;28;20028;-62
2022/03/20 11:02:39;;;;;;;15.07;9.00;;;9.10;40.50;;;;;;5096320;28;20522;-62
2022/03/20 11:05:07;;;;;;;17.30;8.10;;;9.50;39.70;;;;;;5096477;28;20023;-62
2022/03/20 11:07:32;;;;;;;14.20;8.52;;;10.20;39.20;;;;;;5097792;28;20044;-63
2022/03/20 11:10:00;;;;;;;14.70;8.77;;;11.10;38.10;;;;;;5097477;28;20024;-68
2022/03/20 11:12:33;;;;;;;14.43;7.88;;;11.40;37.20;;;;;;5097209;28;20021;-62
2022/03/20 11:15:03;;;;;;;17.40;9.00;;;11.10;37.60;;;;;;5097092;28;20082;-62
2022/03/20 11:17:44;;;;;;;14.40;8.60;;;11.00;37.20;;;;;;5096583;28;20028;-63
2022/03/20 11:20:13;;;;;;;12.55;8.55;;;11.20;37.80;;;;;;5095104;28;20028;-62
2022/03/20 11:22:46;;;;;;;12.35;8.18;;;11.30;37.30;;;;;;5095174;28;20096;-62
2022/03/20 11:25:12;;;;;;;10.57;8.18;;;11.70;36.90;;;;;;5094747;28;20032;-62
2022/03/20 11:27:42;;;;;;;16.40;9.00;;;11.50;37.00;;;;;;5095578;28;20030;-66
2022/03/20 11:30:09;;;;;;;14.15;8.80;;;11.50;37.10;;;;;;5095521;28;20020;-62
2022/03/20 11:32:36;;;;;;;18.15;8.68;;;11.30;37.20;;;;;;5096123;28;20368;-63
2022/03/20 11:35:05;;;;;;;13.82;8.07;;;11.40;37.30;;;;;;5094360;28;20494;-62
2022/03/20 11:37:40;;;;;;;;;;;10.80;37.50;;;;;;5094517;28;20024;-62
2022/03/20 11:40:25;;;;;;;11.70;7.50;;;10.20;38.70;;;;;;5095151;28;20339;-62
2022/03/20 11:43:15;;;;;;;19.08;9.02;;;10.60;38.40;;;;;;5095404;28;20024;-63
2022/03/20 11:45:41;;;;;;;15.18;8.57;;;10.70;38.20;;;;;;5095314;28;20119;-61
2022/03/20 11:48:15;;;;;;;13.57;7.30;;;10.20;38.40;;;;;;5094867;28;20102;-62
2022/03/20 11:50:43;;;;;;;12.32;7.82;;;11.30;37.80;;;;;;5093879;28;20020;-62
2022/03/20 11:53:10;;;;;;;12.10;8.55;;;11.50;36.20;;;;;;5093937;28;20024;-62
2022/03/20 11:55:48;;;;;;;11.57;7.40;;;11.50;36.00;;;;;;5093996;28;20128;-62
2022/03/20 11:58:17;;;;;;;12.88;8.30;;;11.30;36.10;;;;;;5095229;28;20063;-62
2022/03/20 12:00:45;;;;;;;14.02;8.60;;;11.50;37.00;;;;;;5094982;28;20024;-62
2022/03/20 12:03:10;;;;;;;13.50;8.32;;;11.40;36.20;;;;;;5095171;28;20055;-62
2022/03/20 12:06:05;;;;;;;13.05;7.95;;;11.70;36.10;;;;;;5095115;28;20051;-63
2022/03/20 12:09:23;;;;;;;12.68;8.05;;;12.00;35.90;;;;;;5095198;28;20476;-62
2022/03/20 12:12:20;;;;;;;11.73;7.63;;;12.90;35.10;;;;;;5090393;28;20115;-62
2022/03/20 12:14:53;;;;;;;11.88;8.80;;;12.60;34.50;;;;;;5094854;28;20105;-62
2022/03/20 12:17:20;;;;;;;12.98;7.90;;;13.10;33.80;;;;;;5094882;28;20042;-62
2022/03/20 12:19:55;;;;;;;11.80;7.93;;;13.80;33.40;;;;;;5093330;28;20035;-63
2022/03/20 12:22:21;;;;;;;12.60;7.80;;;14.40;33.20;;;;;;5094844;28;20452;-62
2022/03/20 12:24:55;;;;;;;12.05;8.05;;;13.90;33.20;;;;;;5094267;28;20035;-62
2022/03/20 12:27:24;;;;;;;11.38;8.02;;;13.30;33.00;;;;;;5094562;28;20086;-62
2022/03/20 12:29:58;;;;;;;10.20;7.30;;;13.50;33.40;;;;;;5093164;28;20032;-62
2022/03/20 12:32:47;;;;;;;9.65;7.05;;;13.10;33.50;;;;;;5093716;28;20024;-63
2022/03/20 12:35:20;;;;;;;9.68;7.03;;;13.40;32.50;;;;;;5094949;28;20047;-63
2022/03/20 12:37:48;;;;;;;11.35;6.72;;;12.90;33.00;;;;;;5094618;28;20103;-62
2022/03/20 12:40:21;;;;;;;10.35;7.43;;;12.50;33.80;;;;;;5094578;28;20032;-62
2022/03/20 12:43:07;;;;;;;10.38;7.43;;;12.80;33.40;;;;;;5094399;28;20028;-62
2022/03/20 12:45:38;;;;;;;10.90;7.28;;;12.80;33.20;;;;;;5093238;28;20131;-62
2022/03/20 12:48:13;;;;;;;12.00;7.50;;;12.10;34.40;;;;;;5093493;28;20429;-62
2022/03/20 12:50:44;;;;;;;8.88;6.50;;;12.00;34.60;;;;;;5093613;28;20030;-62
2022/03/20 12:53:15;;;;;;;11.00;7.40;;;12.50;34.30;;;;;;5094319;28;20031;-62
2022/03/20 12:55:43;;;;;;;16.63;7.65;;;12.10;33.40;;;;;;5092739;28;20478;-62
2022/03/20 12:58:16;;;;;;;9.68;6.20;;;12.50;33.30;;;;;;5093991;28;20036;-62
2022/03/20 13:00:43;;;;;;;10.43;7.03;;;12.80;32.90;;;;;;5094232;28;20445;-62
2022/03/20 13:03:14;;;;;;;8.90;6.70;;;12.40;33.10;;;;;;5092215;28;20028;-62
2022/03/20 13:05:58;;;;;;;13.27;6.80;;;12.60;32.90;;;;;;5093888;28;20099;-62
2022/03/20 13:08:29;;;;;;;10.25;6.25;;;13.60;32.60;;;;;;5092174;28;20426;-62
2022/03/20 13:10:57;;;;;;;10.77;7.25;;;13.20;32.20;;;;;;5093889;28;20020;-62
2022/03/20 13:13:33;;;;;;;11.82;7.32;;;14.10;31.90;;;;;;5092619;28;20529;-62
2022/03/20 13:16:00;;;;;;;12.98;7.00;;;13.50;31.00;;;;;;5092815;28;20028;-62
2022/03/20 13:18:29;;;;;;;9.88;7.20;;;13.20;32.10;;;;;;5093842;28;20028;-62
2022/03/20 13:20:55;;;;;;;10.23;6.70;;;13.40;31.70;;;;;;5093536;28;20027;-63
2022/03/20 13:23:23;;;;;;;11.98;7.00;;;13.40;31.60;;;;;;5092512;28;20266;-62
2022/03/20 13:25:53;;;;;;;10.25;6.15;;;13.10;31.80;;;;;;5093777;28;20024;-62
2022/03/20 13:28:40;;;;;;;11.50;6.55;;;12.70;32.60;;;;;;5092405;28;20043;-62
2022/03/20 13:31:20;;;;;;;10.30;6.70;;;12.60;32.40;;;;;;5092525;28;20074;-65